Time,TemperatureF,DewpointF,PressureIn,WindDirection,WindDirectionDegrees,WindSpeedMPH,WindSpeedGustMPH,Humidity,HourlyPrecipIn,Conditions,Clouds,dailyrainin,SoftwareType,DateUTC
2013-10-07 00:02:00,79.6,74.0,29.87,SSE,154,1.0,2.0,83,0.00,,,0.00,Wunderground v.1.13,2013-10-07 04:02:00,
2013-10-07 00:04:00,79.6,74.0,29.87,SSE,154,1.0,2.0,83,0.00,,,0.00,Wunderground v.1.13,2013-10-07 04:04:00,
2013-10-07 00:08:00,79.6,74.0,29.86,SSE,154,1.0,1.0,83,0.00,,,0.00,Wunderground v.1.13,2013-10-07 04:08:00,
2013-10-07 00:14:00,79.5,74.2,29.87,SSE,154,0.0,1.0,84,0.00,,,0.00,Wunderground v.1.13,2013-10-07 04:14:00,
2013-10-07 00:16:00,79.5,74.2,29.87,SSE,154,0.0,3.0,84,0.00,,,0.00,Wunderground v.1.13,2013-10-07 04:16:00,
2013-10-07 00:20:00,79.5,74.2,29.87,SSE,154,0.0,3.0,84,0.00,,,0.00,Wunderground v.1.13,2013-10-07 04:20:00,
2013-10-07 00:22:00,79.5,74.2,29.87,SSE,154,0.0,3.0,84,0.00,,,0.00,Wunderground v.1.13,2013-10-07 04:22:00,
2013-10-07 00:28:00,79.6,74.7,29.87,SSE,154,1.0,3.0,85,0.00,,,0.00,Wunderground v.1.13,2013-10-07 04:28:00,
2013-10-07 00:34:00,79.7,74.8,29.87,SSE,154,2.0,3.0,85,0.00,,,0.00,Wunderground v.1.13,2013-10-07 04:34:00,
2013-10-07 00:40:00,79.8,74.9,29.87,SSE,150,2.0,3.0,85,0.00,,,0.00,Wunderground v.1.13,2013-10-07 04:40:00,
2013-10-07 00:46:00,79.9,75.0,29.87,SE,143,2.0,3.0,85,0.00,,,0.00,Wunderground v.1.13,2013-10-07 04:46:00,
2013-10-07 00:52:00,80.0,75.1,29.87,SE,143,2.0,3.0,85,0.00,,,0.00,Wunderground v.1.13,2013-10-07 04:52:00,
2013-10-07 00:58:00,80.0,75.1,29.87,SE,144,1.0,3.0,85,0.00,,,0.00,Wunderground v.1.13,2013-10-07 04:58:00,
2013-10-07 01:04:00,80.0,75.1,29.86,SE,143,1.0,3.0,85,0.00,,,0.00,Wunderground v.1.13,2013-10-07 05:04:00,
2013-10-07 01:10:00,80.0,75.4,29.86,SE,144,2.0,2.0,86,0.00,,,0.00,Wunderground v.1.13,2013-10-07 05:10:00,
2013-10-07 01:16:00,79.9,75.3,29.86,SE,144,1.0,4.0,86,0.00,,,0.00,Wunderground v.1.13,2013-10-07 05:16:00,
2013-10-07 01:22:00,79.9,75.3,29.87,SE,143,1.0,4.0,86,0.00,,,0.00,Wunderground v.1.13,2013-10-07 05:22:00,
2013-10-07 01:28:00,79.8,75.2,29.86,SE,143,1.0,4.0,86,0.00,,,0.00,Wunderground v.1.13,2013-10-07 05:28:00,
2013-10-07 01:34:00,79.7,75.1,29.86,SE,144,1.0,4.0,86,0.00,,,0.00,Wunderground v.1.13,2013-10-07 05:34:00,
2013-10-07 01:40:00,79.6,75.4,29.86,SSE,148,2.0,4.0,87,0.00,,,0.00,Wunderground v.1.13,2013-10-07 05:40:00,
2013-10-07 01:46:00,79.6,75.4,29.86,SE,128,2.0,4.0,87,0.00,,,0.00,Wunderground v.1.13,2013-10-07 05:46:00,
2013-10-07 01:52:00,79.4,75.5,29.85,ESE,123,2.0,4.0,88,0.00,,,0.00,Wunderground v.1.13,2013-10-07 05:52:00,
2013-10-07 01:58:00,79.3,75.4,29.85,ESE,107,2.0,4.0,88,0.00,,,0.00,Wunderground v.1.13,2013-10-07 05:58:00,
2013-10-07 02:04:00,79.3,75.4,29.85,East,98,1.0,4.0,88,0.00,,,0.00,Wunderground v.1.13,2013-10-07 06:04:00,
2013-10-07 02:10:00,79.2,75.3,29.85,ESE,117,1.0,1.0,88,0.00,,,0.00,Wunderground v.1.13,2013-10-07 06:10:00,
2013-10-07 02:16:00,79.2,75.7,29.84,SE,146,1.0,4.0,89,0.00,,,0.00,Wunderground v.1.13,2013-10-07 06:16:00,
2013-10-07 02:24:00,79.1,75.6,29.84,SSE,148,2.0,4.0,89,0.00,,,0.00,Wunderground v.1.13,2013-10-07 06:24:00,
2013-10-07 02:30:00,79.1,75.6,29.84,SSE,152,2.0,2.0,89,0.00,,,0.00,Wunderground v.1.13,2013-10-07 06:30:00,
2013-10-07 02:36:00,79.0,75.5,29.83,SE,142,2.0,2.0,89,0.00,,,0.00,Wunderground v.1.13,2013-10-07 06:36:00,
2013-10-07 02:42:00,79.0,75.5,29.83,SE,142,3.0,3.0,89,0.00,,,0.00,Wunderground v.1.13,2013-10-07 06:42:00,
2013-10-07 02:48:00,78.9,75.7,29.83,East,100,3.0,3.0,90,0.00,,,0.00,Wunderground v.1.13,2013-10-07 06:48:00,
2013-10-07 02:54:00,78.8,75.6,29.83,ESE,122,2.0,2.0,90,0.00,,,0.00,Wunderground v.1.13,2013-10-07 06:54:00,
2013-10-07 03:00:00,78.8,75.6,29.83,SSE,151,2.0,4.0,90,0.00,,,0.00,Wunderground v.1.13,2013-10-07 07:00:00,
2013-10-07 03:06:00,78.8,75.6,29.83,SE,132,2.0,2.0,90,0.00,,,0.00,Wunderground v.1.13,2013-10-07 07:06:00,
2013-10-07 03:12:00,78.8,75.3,29.83,ESE,119,2.0,3.0,89,0.00,,,0.00,Wunderground v.1.13,2013-10-07 07:12:00,
2013-10-07 03:18:00,78.8,75.3,29.83,SSE,157,3.0,5.0,89,0.00,,,0.00,Wunderground v.1.13,2013-10-07 07:18:00,
2013-10-07 03:24:00,78.8,75.3,29.83,SE,132,3.0,5.0,89,0.00,,,0.00,Wunderground v.1.13,2013-10-07 07:24:00,
2013-10-07 03:30:00,78.8,75.3,29.83,SSE,156,3.0,5.0,89,0.00,,,0.00,Wunderground v.1.13,2013-10-07 07:30:00,
2013-10-07 03:36:00,78.8,75.3,29.83,East,89,2.0,5.0,89,0.00,,,0.00,Wunderground v.1.13,2013-10-07 07:36:00,
2013-10-07 03:42:00,78.8,75.3,29.83,SSE,156,2.0,5.0,89,0.00,,,0.00,Wunderground v.1.13,2013-10-07 07:42:00,
2013-10-07 03:48:00,78.5,74.3,29.83,South,172,3.0,5.0,87,0.00,,,0.00,Wunderground v.1.13,2013-10-07 07:48:00,
2013-10-07 03:54:00,77.3,73.5,29.82,SSE,159,4.0,5.0,88,0.00,,,0.00,Wunderground v.1.13,2013-10-07 07:54:00,
2013-10-07 04:00:00,76.4,73.2,29.82,SE,126,3.0,3.0,90,0.00,,,0.01,Wunderground v.1.13,2013-10-07 08:00:00,
2013-10-07 04:06:00,76.1,73.3,29.82,SSE,164,2.0,2.0,91,0.11,,,0.02,Wunderground v.1.13,2013-10-07 08:06:00,
2013-10-07 04:12:00,76.1,73.6,29.82,South,183,2.0,2.0,92,0.09,,,0.03,Wunderground v.1.13,2013-10-07 08:12:00,
2013-10-07 04:18:00,75.9,73.1,29.82,SSE,152,3.0,7.0,91,0.14,,,0.04,Wunderground v.1.13,2013-10-07 08:18:00,
2013-10-07 04:24:00,75.8,73.3,29.82,SE,128,3.0,3.0,92,0.09,,,0.05,Wunderground v.1.13,2013-10-07 08:24:00,
2013-10-07 04:30:00,75.7,73.5,29.81,SSE,156,2.0,7.0,93,0.11,,,0.06,Wunderground v.1.13,2013-10-07 08:30:00,
2013-10-07 04:36:00,75.7,73.5,29.81,SSE,152,2.0,2.0,93,0.14,,,0.08,Wunderground v.1.13,2013-10-07 08:36:00,
2013-10-07 04:42:00,75.8,73.9,29.82,SSE,150,1.0,7.0,94,0.10,,,0.09,Wunderground v.1.13,2013-10-07 08:42:00,
2013-10-07 04:48:00,75.8,73.9,29.82,SE,146,2.0,2.0,94,0.15,,,0.10,Wunderground v.1.13,2013-10-07 08:48:00,
2013-10-07 04:54:00,75.8,73.9,29.81,SE,146,2.0,2.0,94,0.09,,,0.11,Wunderground v.1.13,2013-10-07 08:54:00,
2013-10-07 05:00:00,75.9,74.0,29.81,SE,146,2.0,2.0,94,0.13,,,0.12,Wunderground v.1.13,2013-10-07 09:00:00,
2013-10-07 05:06:00,76.0,74.1,29.81,SSE,154,2.0,2.0,94,0.07,,,0.13,Wunderground v.1.13,2013-10-07 09:06:00,
2013-10-07 05:12:00,76.1,74.2,29.81,SE,132,2.0,2.0,94,0.07,,,0.13,Wunderground v.1.13,2013-10-07 09:12:00,
2013-10-07 05:18:00,76.2,74.3,29.80,ESE,103,2.0,2.0,94,0.07,,,0.14,Wunderground v.1.13,2013-10-07 09:18:00,
2013-10-07 05:24:00,76.2,74.0,29.81,SE,138,3.0,5.0,93,0.06,,,0.14,Wunderground v.1.13,2013-10-07 09:24:00,
2013-10-07 05:30:00,76.2,74.3,29.81,South,175,3.0,3.0,94,0.04,,,0.14,Wunderground v.1.13,2013-10-07 09:30:00,
2013-10-07 05:36:00,76.2,74.0,29.81,SE,124,4.0,4.0,93,0.04,,,0.15,Wunderground v.1.13,2013-10-07 09:36:00,
2013-10-07 05:42:00,76.2,74.3,29.81,SSE,157,4.0,9.0,94,0.07,,,0.16,Wunderground v.1.13,2013-10-07 09:42:00,
2013-10-07 05:48:00,76.0,74.5,29.81,South,180,4.0,5.0,95,0.07,,,0.16,Wunderground v.1.13,2013-10-07 09:48:00,
2013-10-07 05:54:00,76.1,74.6,29.81,South,183,5.0,5.0,95,0.05,,,0.17,Wunderground v.1.13,2013-10-07 09:54:00,
2013-10-07 06:00:00,76.3,74.4,29.81,SSW,205,5.0,5.0,94,0.07,,,0.18,Wunderground v.1.13,2013-10-07 10:00:00,
2013-10-07 06:06:00,76.3,74.4,29.82,South,171,5.0,5.0,94,0.07,,,0.18,Wunderground v.1.13,2013-10-07 10:06:00,
2013-10-07 06:12:00,76.1,73.9,29.81,SW,229,5.0,5.0,93,0.05,,,0.18,Wunderground v.1.13,2013-10-07 10:12:00,
2013-10-07 06:18:00,75.9,74.0,29.81,SSW,211,4.0,4.0,94,0.00,,,0.18,Wunderground v.1.13,2013-10-07 10:18:00,
2013-10-07 06:24:00,75.8,73.9,29.81,SSW,207,4.0,4.0,94,0.00,,,0.19,Wunderground v.1.13,2013-10-07 10:24:00,
2013-10-07 06:30:00,75.8,74.3,29.81,South,173,3.0,3.0,95,0.05,,,0.20,Wunderground v.1.13,2013-10-07 10:30:00,
2013-10-07 06:36:00,76.0,74.5,29.81,South,176,3.0,3.0,95,0.05,,,0.20,Wunderground v.1.13,2013-10-07 10:36:00,
2013-10-07 06:42:00,76.0,74.5,29.81,South,178,2.0,2.0,95,0.05,,,0.20,Wunderground v.1.13,2013-10-07 10:42:00,
2013-10-07 06:48:00,76.1,74.9,29.81,SSW,202,2.0,2.0,96,0.00,,,0.20,Wunderground v.1.13,2013-10-07 10:48:00,
2013-10-07 06:54:00,76.2,75.0,29.81,South,190,2.0,2.0,96,0.00,,,0.21,Wunderground v.1.13,2013-10-07 10:54:00,
2013-10-07 07:00:00,76.3,75.1,29.81,SSW,201,2.0,12.0,96,0.00,,,0.21,Wunderground v.1.13,2013-10-07 11:00:00,
2013-10-07 07:06:00,76.4,75.2,29.81,SSW,212,2.0,2.0,96,0.05,,,0.22,Wunderground v.1.13,2013-10-07 11:06:00,
2013-10-07 07:12:00,76.5,75.3,29.81,South,188,1.0,2.0,96,0.05,,,0.22,Wunderground v.1.13,2013-10-07 11:12:00,
2013-10-07 07:18:00,76.6,75.4,29.81,South,183,1.0,4.0,96,0.04,,,0.22,Wunderground v.1.13,2013-10-07 11:18:00,
2013-10-07 07:24:00,76.7,75.5,29.81,SSE,155,1.0,4.0,96,0.00,,,0.23,Wunderground v.1.13,2013-10-07 11:24:00,
2013-10-07 07:30:00,76.8,75.6,29.81,South,173,2.0,2.0,96,0.00,,,0.23,Wunderground v.1.13,2013-10-07 11:30:00,
2013-10-07 07:36:00,76.8,75.6,29.80,SE,135,1.0,4.0,96,0.05,,,0.24,Wunderground v.1.13,2013-10-07 11:36:00,
2013-10-07 07:42:00,76.8,75.6,29.80,SE,145,2.0,2.0,96,0.05,,,0.24,Wunderground v.1.13,2013-10-07 11:42:00,
2013-10-07 07:48:00,77.0,75.8,29.80,SE,136,2.0,4.0,96,0.04,,,0.24,Wunderground v.1.13,2013-10-07 11:48:00,
2013-10-07 07:54:00,77.1,75.9,29.80,SE,138,2.0,2.0,96,0.00,,,0.25,Wunderground v.1.13,2013-10-07 11:54:00,
2013-10-07 08:00:00,77.3,75.8,29.80,SE,142,1.0,4.0,95,0.00,,,0.25,Wunderground v.1.13,2013-10-07 12:00:00,
2013-10-07 08:06:00,77.4,75.9,29.80,SE,142,1.0,1.0,95,0.05,,,0.25,Wunderground v.1.13,2013-10-07 12:06:00,
2013-10-07 08:12:00,77.4,75.9,29.81,South,189,1.0,5.0,95,0.05,,,0.26,Wunderground v.1.13,2013-10-07 12:12:00,
2013-10-07 08:18:00,77.6,75.7,29.81,South,189,2.0,5.0,94,0.05,,,0.26,Wunderground v.1.13,2013-10-07 12:18:00,
2013-10-07 08:24:00,77.6,75.1,29.82,South,181,3.0,5.0,92,0.04,,,0.27,Wunderground v.1.13,2013-10-07 12:24:00,
2013-10-07 08:30:00,77.6,74.4,29.82,SSW,197,4.0,5.0,90,0.11,,,0.28,Wunderground v.1.13,2013-10-07 12:30:00,
2013-10-07 08:36:00,77.5,74.3,29.83,SW,235,4.0,5.0,90,0.07,,,0.29,Wunderground v.1.13,2013-10-07 12:36:00,
2013-10-07 08:42:00,76.9,74.7,29.83,South,178,4.0,4.0,93,0.11,,,0.30,Wunderground v.1.13,2013-10-07 12:42:00,
2013-10-07 08:48:00,77.1,74.9,29.83,South,190,5.0,5.0,93,0.07,,,0.30,Wunderground v.1.13,2013-10-07 12:48:00,
2013-10-07 08:54:00,77.5,75.0,29.83,South,185,5.0,5.0,92,0.13,,,0.32,Wunderground v.1.13,2013-10-07 12:54:00,
2013-10-07 09:00:00,77.8,75.3,29.83,South,175,5.0,7.0,92,0.09,,,0.33,Wunderground v.1.13,2013-10-07 13:00:00,
2013-10-07 09:06:00,77.8,75.6,29.83,SSW,194,4.0,4.0,93,0.15,,,0.34,Wunderground v.1.13,2013-10-07 13:06:00,
2013-10-07 09:12:00,77.9,75.4,29.83,South,186,3.0,4.0,92,0.11,,,0.35,Wunderground v.1.13,2013-10-07 13:12:00,
2013-10-07 09:18:00,78.4,75.6,29.83,SW,216,4.0,12.0,91,0.10,,,0.36,Wunderground v.1.13,2013-10-07 13:18:00,
2013-10-07 09:24:00,78.2,75.0,29.83,SSW,203,5.0,12.0,90,0.43,,,0.41,Wunderground v.1.13,2013-10-07 13:24:00,
2013-10-07 09:30:00,78.5,74.6,29.83,SW,227,6.0,6.0,88,0.14,,,0.43,Wunderground v.1.13,2013-10-07 13:30:00,
2013-10-07 09:36:00,78.6,74.4,29.83,SW,216,6.0,6.0,87,0.15,,,0.44,Wunderground v.1.13,2013-10-07 13:36:00,
2013-10-07 09:42:00,78.7,74.5,29.83,SW,236,5.0,12.0,87,0.29,,,0.47,Wunderground v.1.13,2013-10-07 13:42:00,
2013-10-07 09:48:00,78.9,74.7,29.83,SSW,205,5.0,5.0,87,0.39,,,0.50,Wunderground v.1.13,2013-10-07 13:48:00,
2013-10-07 09:54:00,79.2,75.3,29.84,SSW,203,5.0,5.0,88,0.21,,,0.53,Wunderground v.1.13,2013-10-07 13:54:00,
2013-10-07 10:00:00,79.5,75.3,29.84,South,172,4.0,12.0,87,0.20,,,0.55,Wunderground v.1.13,2013-10-07 14:00:00,
2013-10-07 10:06:00,79.9,75.7,29.84,SSW,196,5.0,5.0,87,0.16,,,0.57,Wunderground v.1.13,2013-10-07 14:06:00,
2013-10-07 10:12:00,80.1,75.9,29.84,SSE,162,6.0,6.0,87,0.16,,,0.59,Wunderground v.1.13,2013-10-07 14:12:00,
2013-10-07 10:18:00,80.3,75.7,29.84,SSE,153,6.0,6.0,86,0.15,,,0.61,Wunderground v.1.13,2013-10-07 14:18:00,
2013-10-07 10:24:00,80.6,75.7,29.84,South,178,5.0,14.0,85,0.40,,,0.65,Wunderground v.1.13,2013-10-07 14:24:00,
2013-10-07 10:30:00,80.7,76.1,29.84,SSW,200,6.0,14.0,86,0.26,,,0.68,Wunderground v.1.13,2013-10-07 14:30:00,
2013-10-07 10:36:00,80.7,75.8,29.84,South,182,7.0,14.0,85,0.08,,,0.68,Wunderground v.1.13,2013-10-07 14:36:00,
2013-10-07 10:42:00,80.9,76.3,29.84,SSE,155,7.0,7.0,86,0.04,,,0.68,Wunderground v.1.13,2013-10-07 14:42:00,
2013-10-07 10:48:00,81.1,76.2,29.84,SSW,193,6.0,6.0,85,0.00,,,0.68,Wunderground v.1.13,2013-10-07 14:48:00,
2013-10-07 10:54:00,81.4,75.7,29.83,SSW,194,5.0,14.0,83,0.00,,,0.68,Wunderground v.1.13,2013-10-07 14:54:00,
2013-10-07 11:00:00,81.6,76.3,29.84,South,186,5.0,5.0,84,0.00,,,0.68,Wunderground v.1.13,2013-10-07 15:00:00,
2013-10-07 11:06:00,81.6,76.3,29.84,South,184,7.0,11.0,84,0.00,,,0.68,Wunderground v.1.13,2013-10-07 15:06:00,
2013-10-07 11:12:00,81.7,76.4,29.84,SSW,198,8.0,12.0,84,0.00,,,0.68,Wunderground v.1.13,2013-10-07 15:12:00,
2013-10-07 11:18:00,81.9,76.2,29.84,South,176,7.0,7.0,83,0.00,,,0.68,Wunderground v.1.13,2013-10-07 15:18:00,
2013-10-07 11:24:00,82.0,76.3,29.83,SSW,194,7.0,7.0,83,0.00,,,0.68,Wunderground v.1.13,2013-10-07 15:24:00,
2013-10-07 11:30:00,81.9,76.6,29.83,SSW,208,7.0,7.0,84,0.00,,,0.68,Wunderground v.1.13,2013-10-07 15:30:00,
2013-10-07 11:36:00,81.9,76.2,29.83,SSE,159,7.0,18.0,83,0.00,,,0.68,Wunderground v.1.13,2013-10-07 15:36:00,
2013-10-07 11:42:00,81.8,76.5,29.83,SSW,202,6.0,18.0,84,0.00,,,0.68,Wunderground v.1.13,2013-10-07 15:42:00,
2013-10-07 11:48:00,81.9,76.6,29.83,SSE,167,5.0,5.0,84,0.00,,,0.68,Wunderground v.1.13,2013-10-07 15:48:00,
2013-10-07 11:54:00,82.6,77.3,29.83,South,184,6.0,18.0,84,0.00,,,0.68,Wunderground v.1.13,2013-10-07 15:54:00,
2013-10-07 12:00:00,83.3,77.2,29.82,SSW,200,7.0,18.0,82,0.00,,,0.68,Wunderground v.1.13,2013-10-07 16:00:00,
2013-10-07 12:06:00,83.4,77.0,29.82,South,181,8.0,8.0,81,0.00,,,0.68,Wunderground v.1.13,2013-10-07 16:06:00,
2013-10-07 12:12:00,83.0,76.6,29.82,South,177,9.0,9.0,81,0.00,,,0.68,Wunderground v.1.13,2013-10-07 16:12:00,
2013-10-07 12:18:00,83.4,77.3,29.81,South,186,7.0,7.0,82,0.00,,,0.68,Wunderground v.1.13,2013-10-07 16:18:00,
2013-10-07 12:24:00,83.6,77.1,29.81,South,186,7.0,7.0,81,0.00,,,0.68,Wunderground v.1.13,2013-10-07 16:24:00,
2013-10-07 12:30:00,84.0,77.9,29.81,SW,225,8.0,16.0,82,0.00,,,0.68,Wunderground v.1.13,2013-10-07 16:30:00,
2013-10-07 12:36:00,83.8,77.3,29.81,SSW,201,7.0,16.0,81,0.00,,,0.68,Wunderground v.1.13,2013-10-07 16:36:00,
2013-10-07 12:42:00,83.7,77.2,29.80,SSW,204,8.0,8.0,81,0.00,,,0.68,Wunderground v.1.13,2013-10-07 16:42:00,
2013-10-07 12:48:00,83.5,77.4,29.80,SSW,205,8.0,8.0,82,0.00,,,0.68,Wunderground v.1.13,2013-10-07 16:48:00,
2013-10-07 12:54:00,83.4,77.3,29.80,SSW,209,7.0,16.0,82,0.00,,,0.68,Wunderground v.1.13,2013-10-07 16:54:00,
2013-10-07 13:00:00,83.4,77.7,29.80,South,187,6.0,16.0,83,0.00,,,0.68,Wunderground v.1.13,2013-10-07 17:00:00,
2013-10-07 13:06:00,84.1,77.6,29.80,SSW,199,8.0,12.0,81,0.00,,,0.68,Wunderground v.1.13,2013-10-07 17:06:00,
2013-10-07 13:12:00,85.2,78.3,29.79,SSW,207,10.0,12.0,80,0.00,,,0.68,Wunderground v.1.13,2013-10-07 17:12:00,
2013-10-07 13:18:00,85.2,77.6,29.79,SSW,202,9.0,9.0,78,0.00,,,0.68,Wunderground v.1.13,2013-10-07 17:18:00,
2013-10-07 13:24:00,84.7,77.5,29.79,SW,218,9.0,9.0,79,0.00,,,0.68,Wunderground v.1.13,2013-10-07 17:24:00,
2013-10-07 13:30:00,84.5,77.6,29.79,SW,232,8.0,8.0,80,0.00,,,0.68,Wunderground v.1.13,2013-10-07 17:30:00,
2013-10-07 13:36:00,84.7,77.5,29.78,South,177,8.0,8.0,79,0.00,,,0.68,Wunderground v.1.13,2013-10-07 17:36:00,
2013-10-07 13:42:00,85.3,77.7,29.78,West,261,7.0,16.0,78,0.00,,,0.68,Wunderground v.1.13,2013-10-07 17:42:00,
2013-10-07 13:48:00,85.6,77.9,29.78,South,184,7.0,7.0,78,0.00,,,0.68,Wunderground v.1.13,2013-10-07 17:48:00,
2013-10-07 13:54:00,85.7,77.7,29.78,SW,232,8.0,16.0,77,0.00,,,0.68,Wunderground v.1.13,2013-10-07 17:54:00,
2013-10-07 14:00:00,85.6,77.6,29.77,SW,223,8.0,16.0,77,0.00,,,0.68,Wunderground v.1.13,2013-10-07 18:00:00,
2013-10-07 14:06:00,85.8,76.5,29.78,SSE,165,8.0,8.0,74,0.00,,,0.68,Wunderground v.1.13,2013-10-07 18:06:00,
2013-10-07 14:12:00,85.9,77.1,29.78,SSW,197,8.0,9.0,75,0.00,,,0.68,Wunderground v.1.13,2013-10-07 18:12:00,
2013-10-07 14:18:00,85.9,76.6,29.77,WSW,250,9.0,16.0,74,0.00,,,0.68,Wunderground v.1.13,2013-10-07 18:18:00,
2013-10-07 14:24:00,85.8,77.4,29.77,SW,229,8.0,16.0,76,0.00,,,0.68,Wunderground v.1.13,2013-10-07 18:24:00,
2013-10-07 14:30:00,85.8,77.0,29.77,SSE,165,9.0,9.0,75,0.00,,,0.68,Wunderground v.1.13,2013-10-07 18:30:00,
2013-10-07 14:36:00,86.1,77.2,29.77,SSW,209,8.0,16.0,75,0.00,,,0.68,Wunderground v.1.13,2013-10-07 18:36:00,
2013-10-07 14:42:00,85.5,77.1,29.76,SSW,195,8.0,16.0,76,0.00,,,0.68,Wunderground v.1.13,2013-10-07 18:42:00,
2013-10-07 14:48:00,85.4,77.4,29.76,SSW,198,9.0,9.0,77,0.00,,,0.68,Wunderground v.1.13,2013-10-07 18:48:00,
2013-10-07 14:54:00,86.0,77.5,29.75,SSW,201,9.0,9.0,76,0.00,,,0.68,Wunderground v.1.13,2013-10-07 18:54:00,
2013-10-07 15:02:00,86.4,77.5,29.76,South,190,8.0,11.0,75,0.00,,,0.68,Wunderground v.1.13,2013-10-07 19:02:00,
2013-10-07 15:08:00,86.4,77.9,29.75,SSW,200,7.0,10.0,76,0.00,,,0.68,Wunderground v.1.13,2013-10-07 19:08:00,
2013-10-07 15:14:00,86.0,77.1,29.75,South,181,7.0,9.0,75,0.00,,,0.68,Wunderground v.1.13,2013-10-07 19:14:00,
2013-10-07 15:20:00,85.6,77.2,29.75,WSW,238,8.0,10.0,76,0.00,,,0.68,Wunderground v.1.13,2013-10-07 19:20:00,
2013-10-07 15:26:00,83.0,77.3,29.75,SW,236,8.0,18.0,83,0.73,,,0.74,Wunderground v.1.13,2013-10-07 19:26:00,
2013-10-07 15:32:00,82.4,79.2,29.75,SSW,200,7.0,18.0,90,0.13,,,0.75,Wunderground v.1.13,2013-10-07 19:32:00,
2013-10-07 15:38:00,82.8,78.9,29.75,South,190,7.0,18.0,88,0.06,,,0.75,Wunderground v.1.13,2013-10-07 19:38:00,
2013-10-07 15:44:00,83.2,78.2,29.75,SSW,209,8.0,18.0,85,0.04,,,0.75,Wunderground v.1.13,2013-10-07 19:44:00,
2013-10-07 15:50:00,82.8,78.2,29.75,WSW,253,7.0,18.0,86,0.00,,,0.75,Wunderground v.1.13,2013-10-07 19:50:00,
2013-10-07 15:56:00,82.7,77.4,29.75,WSW,246,7.0,18.0,84,0.00,,,0.75,Wunderground v.1.13,2013-10-07 19:56:00,
2013-10-07 16:02:00,83.3,77.2,29.75,SW,228,9.0,18.0,82,0.00,,,0.75,Wunderground v.1.13,2013-10-07 20:02:00,
2013-10-07 16:08:00,83.7,76.9,29.75,WSW,248,9.0,9.0,80,0.00,,,0.75,Wunderground v.1.13,2013-10-07 20:08:00,
2013-10-07 16:14:00,83.7,76.9,29.75,WSW,241,7.0,8.0,80,0.00,,,0.75,Wunderground v.1.13,2013-10-07 20:14:00,
2013-10-07 16:20:00,83.5,77.1,29.75,WSW,252,8.0,20.0,81,0.00,,,0.75,Wunderground v.1.13,2013-10-07 20:20:00,
2013-10-07 16:26:00,83.8,77.3,29.74,SW,223,8.0,20.0,81,0.00,,,0.75,Wunderground v.1.13,2013-10-07 20:26:00,
2013-10-07 16:32:00,83.9,76.7,29.75,WSW,252,8.0,20.0,79,0.00,,,0.75,Wunderground v.1.13,2013-10-07 20:32:00,
2013-10-07 16:38:00,83.6,76.8,29.75,WSW,240,9.0,20.0,80,0.00,,,0.75,Wunderground v.1.13,2013-10-07 20:38:00,
2013-10-07 16:44:00,83.1,76.3,29.75,West,263,9.0,20.0,80,0.00,,,0.75,Wunderground v.1.13,2013-10-07 20:44:00,
2013-10-07 16:50:00,83.2,77.1,29.75,SSW,210,7.0,20.0,82,0.00,,,0.75,Wunderground v.1.13,2013-10-07 20:50:00,
2013-10-07 16:56:00,83.6,76.8,29.75,West,272,7.0,20.0,80,0.00,,,0.75,Wunderground v.1.13,2013-10-07 20:56:00,
2013-10-07 17:02:00,83.6,76.0,29.75,West,259,8.0,20.0,78,0.00,,,0.75,Wunderground v.1.13,2013-10-07 21:02:00,
2013-10-07 17:08:00,83.6,76.4,29.75,WSW,250,8.0,8.0,79,0.00,,,0.75,Wunderground v.1.13,2013-10-07 21:08:00,
2013-10-07 17:14:00,83.8,76.6,29.75,West,280,8.0,11.0,79,0.00,,,0.75,Wunderground v.1.13,2013-10-07 21:14:00,
2013-10-07 17:20:00,84.1,76.1,29.75,WSW,250,8.0,22.0,77,0.00,,,0.75,Wunderground v.1.13,2013-10-07 21:20:00,
2013-10-07 17:26:00,84.1,76.1,29.76,West,273,8.0,22.0,77,0.00,,,0.75,Wunderground v.1.13,2013-10-07 21:26:00,
2013-10-07 17:32:00,84.0,76.0,29.76,West,261,7.0,22.0,77,0.00,,,0.75,Wunderground v.1.13,2013-10-07 21:32:00,
2013-10-07 17:38:00,83.9,76.3,29.76,West,267,6.0,22.0,78,0.00,,,0.75,Wunderground v.1.13,2013-10-07 21:38:00,
2013-10-07 17:44:00,84.0,76.0,29.76,West,280,7.0,22.0,77,0.00,,,0.75,Wunderground v.1.13,2013-10-07 21:44:00,
2013-10-07 17:50:00,84.0,76.0,29.77,WSW,249,8.0,22.0,77,0.00,,,0.75,Wunderground v.1.13,2013-10-07 21:50:00,
2013-10-07 17:56:00,84.2,76.2,29.77,SSW,209,7.0,22.0,77,0.00,,,0.75,Wunderground v.1.13,2013-10-07 21:56:00,
2013-10-07 18:02:00,83.9,75.9,29.77,SW,231,7.0,9.0,77,0.00,,,0.75,Wunderground v.1.13,2013-10-07 22:02:00,
2013-10-07 18:08:00,83.7,75.7,29.77,WSW,257,8.0,8.0,77,0.00,,,0.75,Wunderground v.1.13,2013-10-07 22:08:00,
2013-10-07 18:14:00,83.6,76.0,29.77,WSW,249,6.0,7.0,78,0.00,,,0.75,Wunderground v.1.13,2013-10-07 22:14:00,
2013-10-07 18:20:00,83.3,76.1,29.77,WSW,255,6.0,17.0,79,0.00,,,0.75,Wunderground v.1.13,2013-10-07 22:20:00,
2013-10-07 18:26:00,83.5,76.3,29.77,West,275,6.0,17.0,79,0.00,,,0.75,Wunderground v.1.13,2013-10-07 22:26:00,
2013-10-07 18:32:00,83.5,76.7,29.76,WSW,242,5.0,17.0,80,0.00,,,0.75,Wunderground v.1.13,2013-10-07 22:32:00,
2013-10-07 18:38:00,83.2,76.4,29.77,SW,215,5.0,17.0,80,0.00,,,0.75,Wunderground v.1.13,2013-10-07 22:38:00,
2013-10-07 18:44:00,82.8,76.4,29.76,WSW,239,5.0,17.0,81,0.00,,,0.75,Wunderground v.1.13,2013-10-07 22:44:00,
2013-10-07 18:50:00,82.4,76.3,29.77,SSW,195,5.0,17.0,82,0.00,,,0.75,Wunderground v.1.13,2013-10-07 22:50:00,
2013-10-07 18:56:00,82.2,75.8,29.77,WSW,244,5.0,17.0,81,0.00,,,0.75,Wunderground v.1.13,2013-10-07 22:56:00,
2013-10-07 19:02:00,82.1,75.7,29.77,SSW,205,5.0,17.0,81,0.00,,,0.75,Wunderground v.1.13,2013-10-07 23:02:00,
2013-10-07 19:08:00,82.0,75.2,29.77,West,269,6.0,10.0,80,0.00,,,0.75,Wunderground v.1.13,2013-10-07 23:08:00,
2013-10-07 19:14:00,81.9,75.5,29.77,WSW,254,6.0,6.0,81,0.00,,,0.75,Wunderground v.1.13,2013-10-07 23:14:00,
2013-10-07 19:20:00,81.8,75.8,29.77,West,273,5.0,13.0,82,0.00,,,0.75,Wunderground v.1.13,2013-10-07 23:20:00,
2013-10-07 19:26:00,81.6,75.6,29.78,SW,217,5.0,13.0,82,0.00,,,0.75,Wunderground v.1.13,2013-10-07 23:26:00,
2013-10-07 19:32:00,81.5,75.5,29.78,SW,229,6.0,13.0,82,0.00,,,0.75,Wunderground v.1.13,2013-10-07 23:32:00,
2013-10-07 19:38:00,81.4,75.4,29.78,WSW,248,5.0,13.0,82,0.00,,,0.75,Wunderground v.1.13,2013-10-07 23:38:00,
2013-10-07 19:44:00,81.4,75.4,29.78,WSW,246,5.0,13.0,82,0.00,,,0.75,Wunderground v.1.13,2013-10-07 23:44:00,
2013-10-07 19:50:00,81.4,75.4,29.78,WSW,246,5.0,13.0,82,0.00,,,0.75,Wunderground v.1.13,2013-10-07 23:50:00,
2013-10-07 19:56:00,81.4,75.4,29.79,WSW,244,5.0,13.0,82,0.00,,,0.75,Wunderground v.1.13,2013-10-07 23:56:00,
2013-10-07 20:02:00,81.3,75.3,29.79,West,271,5.0,13.0,82,0.00,,,0.75,Wunderground v.1.13,2013-10-08 00:02:00,
2013-10-07 20:08:00,81.3,75.3,29.79,West,263,5.0,5.0,82,0.00,,,0.75,Wunderground v.1.13,2013-10-08 00:08:00,
2013-10-07 20:14:00,81.2,75.2,29.80,WSW,252,4.0,7.0,82,0.00,,,0.75,Wunderground v.1.13,2013-10-08 00:14:00,
2013-10-07 20:20:00,81.2,75.2,29.80,West,279,4.0,12.0,82,0.00,,,0.75,Wunderground v.1.13,2013-10-08 00:20:00,
2013-10-07 20:26:00,81.3,74.9,29.80,WSW,252,5.0,12.0,81,0.00,,,0.75,Wunderground v.1.13,2013-10-08 00:26:00,
2013-10-07 20:32:00,81.4,75.4,29.80,WSW,242,4.0,12.0,82,0.00,,,0.75,Wunderground v.1.13,2013-10-08 00:32:00,
2013-10-07 20:38:00,81.3,75.3,29.80,SSW,198,4.0,12.0,82,0.00,,,0.75,Wunderground v.1.13,2013-10-08 00:38:00,
2013-10-07 20:44:00,81.3,75.3,29.81,West,268,4.0,12.0,82,0.00,,,0.75,Wunderground v.1.13,2013-10-08 00:44:00,
2013-10-07 20:50:00,81.4,75.4,29.81,WSW,258,5.0,6.0,82,0.00,,,0.75,Wunderground v.1.13,2013-10-08 00:50:00,
2013-10-07 20:56:00,81.5,75.5,29.81,WSW,240,5.0,12.0,82,0.00,,,0.75,Wunderground v.1.13,2013-10-08 00:56:00,
2013-10-07 21:02:00,81.5,75.5,29.81,West,265,5.0,12.0,82,0.00,,,0.75,Wunderground v.1.13,2013-10-08 01:02:00,
2013-10-07 21:08:00,81.5,75.5,29.81,WSW,252,5.0,5.0,82,0.00,,,0.75,Wunderground v.1.13,2013-10-08 01:08:00,
2013-10-07 21:14:00,81.4,75.4,29.82,WSW,250,4.0,4.0,82,0.00,,,0.75,Wunderground v.1.13,2013-10-08 01:14:00,
2013-10-07 21:20:00,81.4,75.4,29.82,SW,232,4.0,13.0,82,0.00,,,0.75,Wunderground v.1.13,2013-10-08 01:20:00,
2013-10-07 21:26:00,81.3,75.6,29.82,WSW,246,4.0,13.0,83,0.00,,,0.75,Wunderground v.1.13,2013-10-08 01:26:00,
2013-10-07 21:32:00,81.3,75.6,29.82,NW,319,4.0,13.0,83,0.00,,,0.75,Wunderground v.1.13,2013-10-08 01:32:00,
2013-10-07 21:38:00,81.4,75.7,29.82,WSW,238,4.0,5.0,83,0.00,,,0.75,Wunderground v.1.13,2013-10-08 01:38:00,
2013-10-07 21:44:00,81.4,75.7,29.82,WSW,243,5.0,13.0,83,0.00,,,0.75,Wunderground v.1.13,2013-10-08 01:44:00,
2013-10-07 21:50:00,81.5,75.5,29.82,WNW,282,5.0,5.0,82,0.00,,,0.75,Wunderground v.1.13,2013-10-08 01:50:00,
2013-10-07 21:56:00,81.5,75.5,29.82,WSW,244,5.0,13.0,82,0.00,,,0.75,Wunderground v.1.13,2013-10-08 01:56:00,
2013-10-07 22:02:00,81.5,75.1,29.82,WSW,249,4.0,13.0,81,0.00,,,0.75,Wunderground v.1.13,2013-10-08 02:02:00,
2013-10-07 22:08:00,81.4,75.0,29.82,SW,234,4.0,5.0,81,0.00,,,0.75,Wunderground v.1.13,2013-10-08 02:08:00,
2013-10-07 22:14:00,81.3,74.9,29.82,WSW,244,4.0,4.0,81,0.00,,,0.75,Wunderground v.1.13,2013-10-08 02:14:00,
2013-10-07 22:20:00,81.3,75.3,29.82,West,269,4.0,14.0,82,0.00,,,0.75,Wunderground v.1.13,2013-10-08 02:20:00,
2013-10-07 22:26:00,81.2,74.8,29.82,WSW,246,4.0,14.0,81,0.00,,,0.75,Wunderground v.1.13,2013-10-08 02:26:00,
2013-10-07 22:32:00,81.1,75.1,29.82,WSW,252,5.0,14.0,82,0.00,,,0.75,Wunderground v.1.13,2013-10-08 02:32:00,
2013-10-07 22:38:00,81.1,75.1,29.82,WSW,246,5.0,6.0,82,0.00,,,0.75,Wunderground v.1.13,2013-10-08 02:38:00,
2013-10-07 22:44:00,81.2,75.5,29.82,WSW,237,5.0,14.0,83,0.00,,,0.75,Wunderground v.1.13,2013-10-08 02:44:00,
2013-10-07 22:50:00,81.2,75.5,29.83,WSW,246,5.0,14.0,83,0.00,,,0.75,Wunderground v.1.13,2013-10-08 02:50:00,
2013-10-07 22:56:00,81.2,75.5,29.82,West,271,5.0,14.0,83,0.00,,,0.75,Wunderground v.1.13,2013-10-08 02:56:00,
2013-10-07 23:02:00,81.2,75.5,29.82,West,263,5.0,14.0,83,0.00,,,0.75,Wunderground v.1.13,2013-10-08 03:02:00,
2013-10-07 23:08:00,81.2,75.9,29.82,SSW,209,6.0,6.0,84,0.00,,,0.75,Wunderground v.1.13,2013-10-08 03:08:00,
2013-10-07 23:14:00,81.3,76.0,29.83,South,191,7.0,7.0,84,0.00,,,0.75,Wunderground v.1.13,2013-10-08 03:14:00,
2013-10-07 23:20:00,81.4,76.1,29.83,SSW,205,6.0,12.0,84,0.00,,,0.75,Wunderground v.1.13,2013-10-08 03:20:00,
2013-10-07 23:26:00,81.4,76.1,29.83,WSW,243,6.0,12.0,84,0.00,,,0.75,Wunderground v.1.13,2013-10-08 03:26:00,
2013-10-07 23:32:00,81.2,76.6,29.83,WSW,252,5.0,9.0,86,0.00,,,0.75,Wunderground v.1.13,2013-10-08 03:32:00,
2013-10-07 23:38:00,80.7,76.5,29.82,West,274,5.0,12.0,87,0.00,,,0.75,Wunderground v.1.13,2013-10-08 03:38:00,
2013-10-07 23:44:00,80.4,76.2,29.82,WSW,255,5.0,6.0,87,0.00,,,0.75,Wunderground v.1.13,2013-10-08 03:44:00,
2013-10-07 23:50:00,80.4,76.2,29.82,West,265,5.0,12.0,87,0.00,,,0.75,Wunderground v.1.13,2013-10-08 03:50:00,
2013-10-07 23:56:00,80.5,76.3,29.82,SW,232,4.0,12.0,87,0.00,,,0.75,Wunderground v.1.13,2013-10-08 03:56:00,